Terminal Aerodrome Forecast
Issued by NWS

Home | Current Version | Previous Version | Text Only | Print | Product List | Glossary On
Versions: 1 2 3 4 5 6 7 8 9 10 11 12 13 14 15 16 17 18 19 20 21 22 23 24 25 26 27 28 29 30 31 32 33 34 35 36 37 38 39 40 41 42 43 44 45 46
000
FTUS45 KBOU 010746 AAA
TAFBJC
TAF AMD
KBJC 010746Z 0108/0206 02010KT 1SM -SN BKN004 OVC007
      TEMPO 0108/0110 1/2SM SN VV002
     FM011000 03010KT 4SM -SN SCT008 BKN020 OVC040
      TEMPO 0110/0111 2SM -SN OVC008
     FM011100 05007KT P6SM VCSH SCT012 BKN022 BKN040
     FM011500 07007KT P6SM SCT020 BKN040
     FM011900 10007KT P6SM SCT040 BKN080
     FM020200 16007KT P6SM FEW060 SCT120 BKN200=

USA.gov is the U.S. government's official web portal to all federal, state and local government web resources and services.